sensor_id;sensor_type;location;lat;lon;timestamp;P1;durP1;ratioP1;P2;durP2;ratioP2
60086;SDS011;45960;53.630;55.972;2023-05-14T00:00:27;116.40;;;29.80;;
60086;SDS011;45960;53.630;55.972;2023-05-14T00:01:28;138.35;;;28.95;;
60086;SDS011;45960;53.630;55.972;2023-05-14T00:02:29;72.43;;;26.60;;
60086;SDS011;45960;53.630;55.972;2023-05-14T00:03:30;147.43;;;28.50;;
60086;SDS011;45960;53.630;55.972;2023-05-14T00:04:31;79.05;;;26.52;;
60086;SDS011;45960;53.630;55.972;2023-05-14T00:05:32;60.20;;;27.08;;
60086;SDS011;45960;53.630;55.972;2023-05-14T00:06:33;81.35;;;25.15;;
60086;SDS011;45960;53.630;55.972;2023-05-14T00:07:34;112.07;;;25.90;;
60086;SDS011;45960;53.630;55.972;2023-05-14T00:08:35;112.72;;;26.25;;
60086;SDS011;45960;53.630;55.972;2023-05-14T00:09:36;114.65;;;24.95;;
60086;SDS011;45960;53.630;55.972;2023-05-14T00:10:38;127.88;;;26.73;;
60086;SDS011;45960;53.630;55.972;2023-05-14T00:11:39;126.50;;;28.05;;
60086;SDS011;45960;53.630;55.972;2023-05-14T00:12:40;126.50;;;25.95;;
60086;SDS011;45960;53.630;55.972;2023-05-14T00:13:41;105.20;;;23.65;;
60086;SDS011;45960;53.630;55.972;2023-05-14T00:14:42;83.13;;;23.35;;
60086;SDS011;45960;53.630;55.972;2023-05-14T00:15:43;99.90;;;24.63;;
60086;SDS011;45960;53.630;55.972;2023-05-14T00:16:44;77.00;;;23.85;;
60086;SDS011;45960;53.630;55.972;2023-05-14T00:17:45;91.55;;;22.75;;
60086;SDS011;45960;53.630;55.972;2023-05-14T00:18:46;99.60;;;25.52;;
60086;SDS011;45960;53.630;55.972;2023-05-14T00:19:48;100.85;;;24.85;;
60086;SDS011;45960;53.630;55.972;2023-05-14T00:20:49;86.15;;;26.30;;
60086;SDS011;45960;53.630;55.972;2023-05-14T00:21:54;60.15;;;22.50;;
60086;SDS011;45960;53.630;55.972;2023-05-14T00:22:55;108.57;;;26.60;;
60086;SDS011;45960;53.630;55.972;2023-05-14T00:23:56;59.05;;;23.05;;
60086;SDS011;45960;53.630;55.972;2023-05-14T00:24:57;55.20;;;22.27;;
60086;SDS011;45960;53.630;55.972;2023-05-14T00:25:58;52.47;;;21.80;;
60086;SDS011;45960;53.630;55.972;2023-05-14T00:27:00;66.28;;;22.52;;
60086;SDS011;45960;53.630;55.972;2023-05-14T00:28:02;62.65;;;21.77;;
60086;SDS011;45960;53.630;55.972;2023-05-14T00:29:03;74.28;;;22.70;;
60086;SDS011;45960;53.630;55.972;2023-05-14T00:30:04;100.60;;;22.23;;
60086;SDS011;45960;53.630;55.972;2023-05-14T00:31:09;106.97;;;22.85;;
60086;SDS011;45960;53.630;55.972;2023-05-14T00:32:10;111.05;;;24.83;;
60086;SDS011;45960;53.630;55.972;2023-05-14T00:33:12;83.63;;;22.67;;
60086;SDS011;45960;53.630;55.972;2023-05-14T00:34:13;69.18;;;22.08;;
60086;SDS011;45960;53.630;55.972;2023-05-14T00:35:14;78.63;;;21.85;;
60086;SDS011;45960;53.630;55.972;2023-05-14T00:36:15;134.63;;;24.55;;
60086;SDS011;45960;53.630;55.972;2023-05-14T00:37:16;62.38;;;21.52;;
60086;SDS011;45960;53.630;55.972;2023-05-14T00:38:17;95.18;;;22.67;;
60086;SDS011;45960;53.630;55.972;2023-05-14T00:39:19;136.88;;;25.27;;
60086;SDS011;45960;53.630;55.972;2023-05-14T00:40:21;80.28;;;23.13;;
60086;SDS011;45960;53.630;55.972;2023-05-14T00:41:25;42.65;;;23.10;;
60086;SDS011;45960;53.630;55.972;2023-05-14T00:42:26;65.25;;;21.35;;
60086;SDS011;45960;53.630;55.972;2023-05-14T00:43:27;69.05;;;23.30;;
60086;SDS011;45960;53.630;55.972;2023-05-14T00:44:28;55.58;;;22.67;;
60086;SDS011;45960;53.630;55.972;2023-05-14T00:45:30;63.38;;;23.45;;
60086;SDS011;45960;53.630;55.972;2023-05-14T00:46:31;46.72;;;20.65;;
60086;SDS011;45960;53.630;55.972;2023-05-14T00:47:32;64.65;;;23.30;;
60086;SDS011;45960;53.630;55.972;2023-05-14T00:48:36;47.58;;;22.13;;
60086;SDS011;45960;53.630;55.972;2023-05-14T00:49:38;63.75;;;20.17;;
60086;SDS011;45960;53.630;55.972;2023-05-14T00:50:40;59.60;;;19.77;;
60086;SDS011;45960;53.630;55.972;2023-05-14T00:51:42;105.90;;;22.20;;
60086;SDS011;45960;53.630;55.972;2023-05-14T00:52:46;117.53;;;23.27;;
60086;SDS011;45960;53.630;55.972;2023-05-14T00:53:47;79.38;;;19.88;;
60086;SDS011;45960;53.630;55.972;2023-05-14T00:54:49;59.70;;;19.85;;
60086;SDS011;45960;53.630;55.972;2023-05-14T00:55:50;62.75;;;19.42;;
60086;SDS011;45960;53.630;55.972;2023-05-14T00:56:52;59.28;;;21.38;;
60086;SDS011;45960;53.630;55.972;2023-05-14T00:57:54;67.45;;;21.38;;
60086;SDS011;45960;53.630;55.972;2023-05-14T00:58:57;60.75;;;21.88;;
60086;SDS011;45960;53.630;55.972;2023-05-14T00:59:58;86.35;;;20.73;;
60086;SDS011;45960;53.630;55.972;2023-05-14T01:01:00;60.83;;;21.70;;
60086;SDS011;45960;53.630;55.972;2023-05-14T01:02:02;45.05;;;19.60;;
60086;SDS011;45960;53.630;55.972;2023-05-14T01:03:03;72.82;;;20.55;;
60086;SDS011;45960;53.630;55.972;2023-05-14T01:04:05;104.47;;;21.73;;
60086;SDS011;45960;53.630;55.972;2023-05-14T01:05:08;62.72;;;18.75;;
60086;SDS011;45960;53.630;55.972;2023-05-14T01:06:14;95.57;;;21.60;;
60086;SDS011;45960;53.630;55.972;2023-05-14T01:10:28;91.53;;;22.98;;
60086;SDS011;45960;53.630;55.972;2023-05-14T01:15:24;87.40;;;20.05;;
60086;SDS011;45960;53.630;55.972;2023-05-14T01:16:22;66.13;;;20.05;;
60086;SDS011;45960;53.630;55.972;2023-05-14T01:17:29;84.32;;;21.13;;
60086;SDS011;45960;53.630;55.972;2023-05-14T01:18:32;65.47;;;19.80;;
60086;SDS011;45960;53.630;55.972;2023-05-14T01:20:45;48.55;;;17.38;;
60086;SDS011;45960;53.630;55.972;2023-05-14T01:21:51;53.38;;;18.25;;
60086;SDS011;45960;53.630;55.972;2023-05-14T01:22:52;61.63;;;20.67;;
60086;SDS011;45960;53.630;55.972;2023-05-14T01:23:53;50.53;;;18.75;;
60086;SDS011;45960;53.630;55.972;2023-05-14T01:24:54;36.33;;;18.75;;
60086;SDS011;45960;53.630;55.972;2023-05-14T01:25:55;62.63;;;18.83;;
60086;SDS011;45960;53.630;55.972;2023-05-14T01:26:59;102.95;;;21.02;;
60086;SDS011;45960;53.630;55.972;2023-05-14T01:29:24;70.03;;;20.33;;
60086;SDS011;45960;53.630;55.972;2023-05-14T01:30:35;103.47;;;20.20;;
60086;SDS011;45960;53.630;55.972;2023-05-14T01:31:38;82.47;;;18.42;;
60086;SDS011;45960;53.630;55.972;2023-05-14T01:32:43;68.70;;;19.10;;
60086;SDS011;45960;53.630;55.972;2023-05-14T01:33:48;46.33;;;18.42;;
60086;SDS011;45960;53.630;55.972;2023-05-14T01:34:49;74.47;;;17.73;;
60086;SDS011;45960;53.630;55.972;2023-05-14T01:35:51;39.58;;;18.25;;
60086;SDS011;45960;53.630;55.972;2023-05-14T01:36:54;68.47;;;18.65;;
60086;SDS011;45960;53.630;55.972;2023-05-14T01:38:00;51.50;;;19.15;;
60086;SDS011;45960;53.630;55.972;2023-05-14T01:39:04;49.17;;;18.10;;
60086;SDS011;45960;53.630;55.972;2023-05-14T01:40:09;68.55;;;19.52;;
60086;SDS011;45960;53.630;55.972;2023-05-14T01:41:11;60.92;;;19.48;;
60086;SDS011;45960;53.630;55.972;2023-05-14T01:42:14;56.90;;;18.08;;
60086;SDS011;45960;53.630;55.972;2023-05-14T01:43:15;52.05;;;18.55;;
60086;SDS011;45960;53.630;55.972;2023-05-14T01:44:16;35.45;;;18.83;;
60086;SDS011;45960;53.630;55.972;2023-05-14T01:45:19;36.80;;;17.50;;
60086;SDS011;45960;53.630;55.972;2023-05-14T01:46:21;52.03;;;19.52;;
60086;SDS011;45960;53.630;55.972;2023-05-14T01:47:24;62.72;;;19.60;;
60086;SDS011;45960;53.630;55.972;2023-05-14T01:48:25;53.10;;;20.77;;
60086;SDS011;45960;53.630;55.972;2023-05-14T01:49:26;71.32;;;21.30;;
60086;SDS011;45960;53.630;55.972;2023-05-14T01:50:27;42.00;;;19.58;;
60086;SDS011;45960;53.630;55.972;2023-05-14T01:51:29;58.10;;;21.33;;
60086;SDS011;45960;53.630;55.972;2023-05-14T01:52:30;56.95;;;20.42;;
60086;SDS011;45960;53.630;55.972;2023-05-14T01:53:31;50.13;;;20.88;;
60086;SDS011;45960;53.630;55.972;2023-05-14T01:54:34;56.28;;;20.52;;
60086;SDS011;45960;53.630;55.972;2023-05-14T01:55:35;76.50;;;22.77;;
60086;SDS011;45960;53.630;55.972;2023-05-14T01:56:36;62.83;;;22.33;;
60086;SDS011;45960;53.630;55.972;2023-05-14T01:57:37;56.13;;;21.60;;
60086;SDS011;45960;53.630;55.972;2023-05-14T01:58:38;57.20;;;21.88;;
60086;SDS011;45960;53.630;55.972;2023-05-14T01:59:40;73.97;;;23.02;;
60086;SDS011;45960;53.630;55.972;2023-05-14T02:00:41;46.45;;;21.42;;
60086;SDS011;45960;53.630;55.972;2023-05-14T02:01:42;59.22;;;20.33;;
60086;SDS011;45960;53.630;55.972;2023-05-14T02:02:43;59.08;;;21.15;;
60086;SDS011;45960;53.630;55.972;2023-05-14T02:03:46;48.80;;;19.85;;
60086;SDS011;45960;53.630;55.972;2023-05-14T02:04:48;84.43;;;22.10;;
60086;SDS011;45960;53.630;55.972;2023-05-14T02:05:50;87.03;;;22.13;;
60086;SDS011;45960;53.630;55.972;2023-05-14T02:06:51;113.38;;;18.75;;
60086;SDS011;45960;53.630;55.972;2023-05-14T02:07:52;74.32;;;20.38;;
60086;SDS011;45960;53.630;55.972;2023-05-14T02:08:53;32.08;;;18.92;;
60086;SDS011;45960;53.630;55.972;2023-05-14T02:09:54;96.03;;;21.65;;
60086;SDS011;45960;53.630;55.972;2023-05-14T02:10:55;72.53;;;21.85;;
60086;SDS011;45960;53.630;55.972;2023-05-14T02:11:59;62.67;;;20.55;;
60086;SDS011;45960;53.630;55.972;2023-05-14T02:13:00;53.65;;;21.60;;
60086;SDS011;45960;53.630;55.972;2023-05-14T02:14:02;40.35;;;20.15;;
60086;SDS011;45960;53.630;55.972;2023-05-14T02:15:04;51.00;;;20.00;;
60086;SDS011;45960;53.630;55.972;2023-05-14T02:16:08;51.10;;;18.95;;
60086;SDS011;45960;53.630;55.972;2023-05-14T02:17:09;39.80;;;20.23;;
60086;SDS011;45960;53.630;55.972;2023-05-14T02:18:10;56.33;;;19.38;;
60086;SDS011;45960;53.630;55.972;2023-05-14T02:19:12;59.53;;;18.83;;
60086;SDS011;45960;53.630;55.972;2023-05-14T02:21:33;66.35;;;20.30;;
60086;SDS011;45960;53.630;55.972;2023-05-14T02:22:35;48.55;;;17.50;;
60086;SDS011;45960;53.630;55.972;2023-05-14T02:23:36;61.95;;;19.67;;
60086;SDS011;45960;53.630;55.972;2023-05-14T02:24:37;64.75;;;20.00;;
60086;SDS011;45960;53.630;55.972;2023-05-14T02:25:38;37.65;;;19.15;;
60086;SDS011;45960;53.630;55.972;2023-05-14T02:26:39;49.47;;;20.05;;
60086;SDS011;45960;53.630;55.972;2023-05-14T02:27:41;49.63;;;19.80;;
60086;SDS011;45960;53.630;55.972;2023-05-14T02:28:42;45.63;;;19.98;;
60086;SDS011;45960;53.630;55.972;2023-05-14T02:29:47;46.03;;;18.90;;
60086;SDS011;45960;53.630;55.972;2023-05-14T02:30:48;73.85;;;19.75;;
60086;SDS011;45960;53.630;55.972;2023-05-14T02:31:49;44.65;;;20.40;;
60086;SDS011;45960;53.630;55.972;2023-05-14T02:32:50;42.13;;;20.15;;
60086;SDS011;45960;53.630;55.972;2023-05-14T02:33:51;39.22;;;18.83;;
60086;SDS011;45960;53.630;55.972;2023-05-14T02:34:52;44.25;;;19.52;;
60086;SDS011;45960;53.630;55.972;2023-05-14T02:35:53;48.72;;;20.83;;
60086;SDS011;45960;53.630;55.972;2023-05-14T02:36:54;39.85;;;20.00;;
60086;SDS011;45960;53.630;55.972;2023-05-14T02:37:56;40.38;;;21.38;;
60086;SDS011;45960;53.630;55.972;2023-05-14T02:38:58;63.63;;;22.70;;
60086;SDS011;45960;53.630;55.972;2023-05-14T02:40:04;36.63;;;19.58;;
60086;SDS011;45960;53.630;55.972;2023-05-14T02:41:06;68.93;;;22.33;;
60086;SDS011;45960;53.630;55.972;2023-05-14T02:42:07;52.00;;;19.67;;
60086;SDS011;45960;53.630;55.972;2023-05-14T02:43:08;51.95;;;21.83;;
60086;SDS011;45960;53.630;55.972;2023-05-14T02:44:09;41.30;;;19.20;;
60086;SDS011;45960;53.630;55.972;2023-05-14T02:45:10;38.92;;;20.80;;
60086;SDS011;45960;53.630;55.972;2023-05-14T02:46:11;39.70;;;21.45;;
60086;SDS011;45960;53.630;55.972;2023-05-14T02:47:12;83.05;;;23.95;;
60086;SDS011;45960;53.630;55.972;2023-05-14T02:48:14;55.75;;;22.25;;
60086;SDS011;45960;53.630;55.972;2023-05-14T02:49:15;43.72;;;22.38;;
60086;SDS011;45960;53.630;55.972;2023-05-14T02:50:17;39.60;;;20.55;;
60086;SDS011;45960;53.630;55.972;2023-05-14T02:51:18;68.85;;;21.90;;
60086;SDS011;45960;53.630;55.972;2023-05-14T02:52:20;57.20;;;22.08;;
60086;SDS011;45960;53.630;55.972;2023-05-14T02:53:21;33.95;;;19.58;;
60086;SDS011;45960;53.630;55.972;2023-05-14T02:54:22;33.47;;;19.40;;
60086;SDS011;45960;53.630;55.972;2023-05-14T02:55:23;36.22;;;19.80;;
60086;SDS011;45960;53.630;55.972;2023-05-14T02:56:26;39.85;;;20.95;;
60086;SDS011;45960;53.630;55.972;2023-05-14T02:57:27;35.10;;;20.85;;
60086;SDS011;45960;53.630;55.972;2023-05-14T02:58:28;42.13;;;20.95;;
60086;SDS011;45960;53.630;55.972;2023-05-14T02:59:29;45.10;;;21.05;;
60086;SDS011;45960;53.630;55.972;2023-05-14T03:00:31;38.17;;;20.13;;
60086;SDS011;45960;53.630;55.972;2023-05-14T03:01:32;38.63;;;21.88;;
60086;SDS011;45960;53.630;55.972;2023-05-14T03:02:33;37.17;;;21.23;;
60086;SDS011;45960;53.630;55.972;2023-05-14T03:03:35;35.03;;;20.08;;
60086;SDS011;45960;53.630;55.972;2023-05-14T03:04:38;35.28;;;20.90;;
60086;SDS011;45960;53.630;55.972;2023-05-14T03:05:39;34.03;;;19.83;;
60086;SDS011;45960;53.630;55.972;2023-05-14T03:06:40;35.83;;;20.17;;
60086;SDS011;45960;53.630;55.972;2023-05-14T03:07:41;34.15;;;21.10;;
60086;SDS011;45960;53.630;55.972;2023-05-14T03:08:42;42.00;;;21.20;;
60086;SDS011;45960;53.630;55.972;2023-05-14T03:09:43;35.58;;;20.00;;
60086;SDS011;45960;53.630;55.972;2023-05-14T03:10:44;35.67;;;20.65;;
60086;SDS011;45960;53.630;55.972;2023-05-14T03:11:46;34.90;;;19.48;;
60086;SDS011;45960;53.630;55.972;2023-05-14T03:12:47;32.35;;;20.63;;
60086;SDS011;45960;53.630;55.972;2023-05-14T03:13:48;40.83;;;20.35;;
60086;SDS011;45960;53.630;55.972;2023-05-14T03:14:50;38.25;;;19.77;;
60086;SDS011;45960;53.630;55.972;2023-05-14T03:15:51;41.47;;;21.00;;
60086;SDS011;45960;53.630;55.972;2023-05-14T03:16:56;42.95;;;21.38;;
60086;SDS011;45960;53.630;55.972;2023-05-14T03:17:57;31.02;;;19.27;;
60086;SDS011;45960;53.630;55.972;2023-05-14T03:18:59;30.30;;;18.70;;
60086;SDS011;45960;53.630;55.972;2023-05-14T03:20:00;36.60;;;20.08;;
60086;SDS011;45960;53.630;55.972;2023-05-14T03:21:01;38.65;;;20.95;;
60086;SDS011;45960;53.630;55.972;2023-05-14T03:22:03;35.55;;;20.63;;
60086;SDS011;45960;53.630;55.972;2023-05-14T03:23:04;39.40;;;21.33;;
60086;SDS011;45960;53.630;55.972;2023-05-14T03:24:05;33.05;;;21.13;;
60086;SDS011;45960;53.630;55.972;2023-05-14T03:25:07;37.35;;;21.42;;
60086;SDS011;45960;53.630;55.972;2023-05-14T03:26:09;34.22;;;18.85;;
60086;SDS011;45960;53.630;55.972;2023-05-14T03:27:10;36.38;;;21.00;;
60086;SDS011;45960;53.630;55.972;2023-05-14T03:28:11;35.33;;;20.92;;
60086;SDS011;45960;53.630;55.972;2023-05-14T03:29:12;32.22;;;19.95;;
60086;SDS011;45960;53.630;55.972;2023-05-14T03:30:17;34.42;;;20.50;;
60086;SDS011;45960;53.630;55.972;2023-05-14T03:31:18;36.70;;;20.83;;
60086;SDS011;45960;53.630;55.972;2023-05-14T03:32:19;31.67;;;20.80;;
60086;SDS011;45960;53.630;55.972;2023-05-14T03:33:21;36.67;;;20.27;;
60086;SDS011;45960;53.630;55.972;2023-05-14T03:34:22;36.63;;;20.63;;
60086;SDS011;45960;53.630;55.972;2023-05-14T03:35:23;36.47;;;20.38;;
60086;SDS011;45960;53.630;55.972;2023-05-14T03:36:25;33.72;;;21.25;;
60086;SDS011;45960;53.630;55.972;2023-05-14T03:37:26;35.58;;;21.55;;
60086;SDS011;45960;53.630;55.972;2023-05-14T03:38:27;34.17;;;19.35;;
60086;SDS011;45960;53.630;55.972;2023-05-14T03:39:29;34.35;;;21.42;;
60086;SDS011;45960;53.630;55.972;2023-05-14T03:40:30;33.30;;;20.58;;
60086;SDS011;45960;53.630;55.972;2023-05-14T03:41:31;35.72;;;22.00;;
60086;SDS011;45960;53.630;55.972;2023-05-14T03:42:33;34.35;;;21.23;;
60086;SDS011;45960;53.630;55.972;2023-05-14T03:43:34;38.90;;;20.67;;
60086;SDS011;45960;53.630;55.972;2023-05-14T03:44:35;40.83;;;21.55;;
60086;SDS011;45960;53.630;55.972;2023-05-14T03:45:37;41.00;;;23.30;;
60086;SDS011;45960;53.630;55.972;2023-05-14T03:46:39;36.47;;;21.30;;
60086;SDS011;45960;53.630;55.972;2023-05-14T03:47:41;33.17;;;20.48;;
60086;SDS011;45960;53.630;55.972;2023-05-14T03:48:42;38.40;;;20.63;;
60086;SDS011;45960;53.630;55.972;2023-05-14T03:49:43;34.63;;;20.50;;
60086;SDS011;45960;53.630;55.972;2023-05-14T03:50:46;34.72;;;21.42;;
60086;SDS011;45960;53.630;55.972;2023-05-14T03:51:47;37.28;;;22.52;;
60086;SDS011;45960;53.630;55.972;2023-05-14T03:52:48;40.38;;;21.20;;
60086;SDS011;45960;53.630;55.972;2023-05-14T03:53:49;38.85;;;22.45;;
60086;SDS011;45960;53.630;55.972;2023-05-14T03:54:50;39.92;;;21.73;;
60086;SDS011;45960;53.630;55.972;2023-05-14T03:55:51;36.75;;;22.30;;
60086;SDS011;45960;53.630;55.972;2023-05-14T03:56:52;38.15;;;22.35;;
60086;SDS011;45960;53.630;55.972;2023-05-14T03:57:53;40.60;;;22.98;;
60086;SDS011;45960;53.630;55.972;2023-05-14T03:58:54;38.40;;;23.20;;
60086;SDS011;45960;53.630;55.972;2023-05-14T03:59:55;39.65;;;22.92;;
60086;SDS011;45960;53.630;55.972;2023-05-14T04:00:57;44.65;;;24.92;;
60086;SDS011;45960;53.630;55.972;2023-05-14T04:01:59;42.20;;;24.42;;
60086;SDS011;45960;53.630;55.972;2023-05-14T04:03:00;38.35;;;22.25;;
60086;SDS011;45960;53.630;55.972;2023-05-14T04:04:01;42.08;;;24.67;;
60086;SDS011;45960;53.630;55.972;2023-05-14T04:05:02;42.35;;;25.38;;
60086;SDS011;45960;53.630;55.972;2023-05-14T04:06:04;41.10;;;23.58;;
60086;SDS011;45960;53.630;55.972;2023-05-14T04:07:05;42.72;;;23.65;;
60086;SDS011;45960;53.630;55.972;2023-05-14T04:08:08;42.13;;;23.05;;
60086;SDS011;45960;53.630;55.972;2023-05-14T04:09:09;43.05;;;23.98;;
60086;SDS011;45960;53.630;55.972;2023-05-14T04:10:11;39.53;;;23.05;;
60086;SDS011;45960;53.630;55.972;2023-05-14T04:11:13;41.72;;;24.50;;
60086;SDS011;45960;53.630;55.972;2023-05-14T04:12:14;53.55;;;26.05;;
60086;SDS011;45960;53.630;55.972;2023-05-14T04:13:15;53.38;;;25.08;;
60086;SDS011;45960;53.630;55.972;2023-05-14T04:14:17;50.80;;;26.33;;
60086;SDS011;45960;53.630;55.972;2023-05-14T04:15:19;43.75;;;25.73;;
60086;SDS011;45960;53.630;55.972;2023-05-14T04:16:20;46.95;;;26.63;;
60086;SDS011;45960;53.630;55.972;2023-05-14T04:17:21;49.67;;;27.73;;
60086;SDS011;45960;53.630;55.972;2023-05-14T04:18:22;51.30;;;28.35;;
60086;SDS011;45960;53.630;55.972;2023-05-14T04:19:24;51.55;;;27.30;;
60086;SDS011;45960;53.630;55.972;2023-05-14T04:20:25;64.45;;;31.90;;
60086;SDS011;45960;53.630;55.972;2023-05-14T04:21:26;63.50;;;30.58;;
60086;SDS011;45960;53.630;55.972;2023-05-14T04:22:27;61.35;;;30.85;;
60086;SDS011;45960;53.630;55.972;2023-05-14T04:23:28;69.78;;;31.70;;
60086;SDS011;45960;53.630;55.972;2023-05-14T04:24:31;69.75;;;32.97;;
60086;SDS011;45960;53.630;55.972;2023-05-14T04:25:32;72.72;;;34.72;;
60086;SDS011;45960;53.630;55.972;2023-05-14T04:26:33;82.63;;;37.10;;
60086;SDS011;45960;53.630;55.972;2023-05-14T04:27:34;86.38;;;39.13;;
60086;SDS011;45960;53.630;55.972;2023-05-14T04:28:36;99.50;;;41.00;;
60086;SDS011;45960;53.630;55.972;2023-05-14T04:29:37;104.47;;;43.03;;
60086;SDS011;45960;53.630;55.972;2023-05-14T04:30:38;109.03;;;46.13;;
60086;SDS011;45960;53.630;55.972;2023-05-14T04:31:40;128.43;;;49.10;;
60086;SDS011;45960;53.630;55.972;2023-05-14T04:32:42;114.85;;;45.97;;
60086;SDS011;45960;53.630;55.972;2023-05-14T04:33:43;112.80;;;43.40;;
60086;SDS011;45960;53.630;55.972;2023-05-14T04:34:45;116.68;;;45.35;;
60086;SDS011;45960;53.630;55.972;2023-05-14T04:35:46;113.93;;;44.08;;
60086;SDS011;45960;53.630;55.972;2023-05-14T04:36:48;112.35;;;42.72;;
60086;SDS011;45960;53.630;55.972;2023-05-14T04:37:49;113.30;;;44.75;;
60086;SDS011;45960;53.630;55.972;2023-05-14T04:38:50;109.07;;;44.22;;
60086;SDS011;45960;53.630;55.972;2023-05-14T04:39:51;109.68;;;46.22;;
60086;SDS011;45960;53.630;55.972;2023-05-14T04:40:52;107.05;;;42.63;;
60086;SDS011;45960;53.630;55.972;2023-05-14T04:41:54;107.63;;;46.03;;
60086;SDS011;45960;53.630;55.972;2023-05-14T04:42:55;107.47;;;45.03;;
60086;SDS011;45960;53.630;55.972;2023-05-14T04:43:57;108.10;;;44.58;;
60086;SDS011;45960;53.630;55.972;2023-05-14T04:45:01;99.97;;;43.53;;
60086;SDS011;45960;53.630;55.972;2023-05-14T04:46:05;103.65;;;43.65;;
60086;SDS011;45960;53.630;55.972;2023-05-14T04:47:06;104.28;;;44.22;;
60086;SDS011;45960;53.630;55.972;2023-05-14T04:48:07;96.85;;;43.42;;
60086;SDS011;45960;53.630;55.972;2023-05-14T04:49:08;96.13;;;41.67;;
60086;SDS011;45960;53.630;55.972;2023-05-14T04:50:09;109.53;;;44.50;;
60086;SDS011;45960;53.630;55.972;2023-05-14T04:51:10;100.10;;;41.38;;
60086;SDS011;45960;53.630;55.972;2023-05-14T04:52:11;90.78;;;40.92;;
60086;SDS011;45960;53.630;55.972;2023-05-14T04:53:13;100.90;;;42.90;;
60086;SDS011;45960;53.630;55.972;2023-05-14T04:54:13;100.22;;;42.10;;
60086;SDS011;45960;53.630;55.972;2023-05-14T04:55:14;100.45;;;41.15;;
60086;SDS011;45960;53.630;55.972;2023-05-14T04:56:16;98.35;;;42.33;;
60086;SDS011;45960;53.630;55.972;2023-05-14T04:57:17;96.78;;;42.38;;
60086;SDS011;45960;53.630;55.972;2023-05-14T04:58:18;91.88;;;40.00;;
60086;SDS011;45960;53.630;55.972;2023-05-14T04:59:19;95.13;;;43.70;;
60086;SDS011;45960;53.630;55.972;2023-05-14T05:00:20;90.65;;;44.30;;
60086;SDS011;45960;53.630;55.972;2023-05-14T05:01:22;108.53;;;45.72;;
60086;SDS011;45960;53.630;55.972;2023-05-14T05:02:23;112.85;;;45.25;;
60086;SDS011;45960;53.630;55.972;2023-05-14T05:03:25;101.35;;;43.97;;
60086;SDS011;45960;53.630;55.972;2023-05-14T05:04:26;102.50;;;40.80;;
60086;SDS011;45960;53.630;55.972;2023-05-14T05:05:27;94.65;;;43.17;;
60086;SDS011;45960;53.630;55.972;2023-05-14T05:06:29;104.50;;;44.28;;
60086;SDS011;45960;53.630;55.972;2023-05-14T05:07:34;97.40;;;43.08;;
60086;SDS011;45960;53.630;55.972;2023-05-14T05:08:36;102.65;;;41.22;;
60086;SDS011;45960;53.630;55.972;2023-05-14T05:09:39;94.15;;;41.72;;
60086;SDS011;45960;53.630;55.972;2023-05-14T05:10:40;94.65;;;40.13;;
60086;SDS011;45960;53.630;55.972;2023-05-14T05:11:42;96.30;;;41.28;;
60086;SDS011;45960;53.630;55.972;2023-05-14T05:12:46;96.97;;;42.95;;
60086;SDS011;45960;53.630;55.972;2023-05-14T05:14:00;89.60;;;38.67;;
60086;SDS011;45960;53.630;55.972;2023-05-14T05:15:01;83.53;;;37.75;;
60086;SDS011;45960;53.630;55.972;2023-05-14T05:16:10;82.57;;;36.97;;
60086;SDS011;45960;53.630;55.972;2023-05-14T05:17:12;81.53;;;37.05;;
60086;SDS011;45960;53.630;55.972;2023-05-14T05:18:14;83.45;;;36.30;;
60086;SDS011;45960;53.630;55.972;2023-05-14T05:19:20;80.82;;;38.33;;
60086;SDS011;45960;53.630;55.972;2023-05-14T05:20:24;81.10;;;36.92;;
60086;SDS011;45960;53.630;55.972;2023-05-14T05:21:28;80.07;;;34.38;;
60086;SDS011;45960;53.630;55.972;2023-05-14T05:22:30;75.63;;;35.50;;
60086;SDS011;45960;53.630;55.972;2023-05-14T05:23:31;72.82;;;36.20;;
60086;SDS011;45960;53.630;55.972;2023-05-14T05:24:32;75.65;;;36.13;;
60086;SDS011;45960;53.630;55.972;2023-05-14T05:25:33;78.18;;;39.38;;
60086;SDS011;45960;53.630;55.972;2023-05-14T05:26:34;73.88;;;35.75;;
60086;SDS011;45960;53.630;55.972;2023-05-14T05:27:38;69.28;;;35.50;;
60086;SDS011;45960;53.630;55.972;2023-05-14T05:28:40;62.75;;;32.58;;
60086;SDS011;45960;53.630;55.972;2023-05-14T05:29:43;61.53;;;33.10;;
60086;SDS011;45960;53.630;55.972;2023-05-14T05:30:44;67.60;;;32.55;;
60086;SDS011;45960;53.630;55.972;2023-05-14T05:31:45;63.80;;;33.28;;
60086;SDS011;45960;53.630;55.972;2023-05-14T05:32:46;56.30;;;30.63;;
60086;SDS011;45960;53.630;55.972;2023-05-14T05:33:47;61.15;;;29.00;;
60086;SDS011;45960;53.630;55.972;2023-05-14T05:34:49;55.40;;;30.83;;
60086;SDS011;45960;53.630;55.972;2023-05-14T05:35:51;53.42;;;28.25;;
60086;SDS011;45960;53.630;55.972;2023-05-14T05:36:52;52.15;;;28.08;;
60086;SDS011;45960;53.630;55.972;2023-05-14T05:37:53;54.92;;;28.45;;
60086;SDS011;45960;53.630;55.972;2023-05-14T05:38:54;54.28;;;30.98;;
60086;SDS011;45960;53.630;55.972;2023-05-14T05:39:55;54.05;;;28.70;;
60086;SDS011;45960;53.630;55.972;2023-05-14T05:40:56;48.63;;;29.13;;
60086;SDS011;45960;53.630;55.972;2023-05-14T05:41:57;53.38;;;28.77;;
60086;SDS011;45960;53.630;55.972;2023-05-14T05:42:58;54.20;;;29.55;;
60086;SDS011;45960;53.630;55.972;2023-05-14T05:43:59;48.78;;;28.23;;
60086;SDS011;45960;53.630;55.972;2023-05-14T05:45:01;54.83;;;29.30;;
60086;SDS011;45960;53.630;55.972;2023-05-14T05:46:02;48.13;;;26.02;;
60086;SDS011;45960;53.630;55.972;2023-05-14T05:47:03;52.00;;;27.55;;
60086;SDS011;45960;53.630;55.972;2023-05-14T05:48:04;47.50;;;25.88;;
60086;SDS011;45960;53.630;55.972;2023-05-14T05:49:05;48.78;;;27.05;;
60086;SDS011;45960;53.630;55.972;2023-05-14T05:50:07;43.53;;;26.23;;
60086;SDS011;45960;53.630;55.972;2023-05-14T05:51:09;44.10;;;25.92;;
60086;SDS011;45960;53.630;55.972;2023-05-14T05:52:11;47.75;;;26.08;;
60086;SDS011;45960;53.630;55.972;2023-05-14T05:53:12;45.25;;;24.52;;
60086;SDS011;45960;53.630;55.972;2023-05-14T05:54:13;44.03;;;25.10;;
60086;SDS011;45960;53.630;55.972;2023-05-14T05:55:15;42.10;;;23.05;;
60086;SDS011;45960;53.630;55.972;2023-05-14T05:56:16;42.03;;;23.10;;
60086;SDS011;45960;53.630;55.972;2023-05-14T05:57:17;42.55;;;22.48;;
60086;SDS011;45960;53.630;55.972;2023-05-14T05:58:18;39.67;;;23.20;;
60086;SDS011;45960;53.630;55.972;2023-05-14T05:59:19;36.20;;;22.33;;
60086;SDS011;45960;53.630;55.972;2023-05-14T06:00:21;37.03;;;21.92;;
60086;SDS011;45960;53.630;55.972;2023-05-14T06:01:23;42.25;;;21.27;;
60086;SDS011;45960;53.630;55.972;2023-05-14T06:02:24;36.15;;;21.05;;
60086;SDS011;45960;53.630;55.972;2023-05-14T06:03:25;28.98;;;18.60;;
60086;SDS011;45960;53.630;55.972;2023-05-14T06:04:26;30.30;;;18.30;;
60086;SDS011;45960;53.630;55.972;2023-05-14T06:05:27;36.00;;;20.42;;